createdAt,value
2018-12-08T13:07:31.227Z,66.69
2018-12-08T13:08:31.324Z,66.69
2018-12-08T13:09:31.369Z,66.89
2018-12-08T13:10:31.475Z,66.39
2018-12-08T13:11:31.734Z,66.69
2018-12-08T13:12:31.562Z,66.89
2018-12-08T13:13:31.587Z,67.16
2018-12-08T13:14:31.681Z,67.09
2018-12-08T13:15:31.707Z,67.09
2018-12-08T13:16:31.794Z,66.69
2018-12-08T13:17:31.750Z,66.46
2018-12-08T13:18:31.766Z,66.89
2018-12-08T13:19:31.952Z,66.86
2018-12-08T13:20:31.867Z,66.49
2018-12-08T13:21:31.874Z,66.69
2018-12-08T13:22:31.904Z,66.78
2018-12-08T13:23:31.930Z,66.78
2018-12-08T13:24:31.986Z,65.99
2018-12-08T13:25:31.984Z,66.59
2018-12-08T13:26:32.073Z,66.69
2018-12-08T13:27:32.085Z,66.69
2018-12-08T13:28:32.092Z,66.39
2018-12-08T13:29:32.158Z,66.05
2018-12-08T13:30:32.188Z,66.75
2018-12-08T13:31:32.186Z,67.09
2018-12-08T13:32:32.194Z,66.28
2018-12-08T13:33:32.210Z,66.16
2018-12-08T13:34:32.227Z,66.75
2018-12-08T13:35:32.247Z,66.75
2018-12-08T13:36:32.312Z,66.96
2018-12-08T13:37:32.290Z,66.86
2018-12-08T13:38:32.433Z,66.75
2018-12-08T13:39:32.301Z,66.46
2018-12-08T13:40:32.370Z,65.95
2018-12-08T13:41:32.587Z,66.25
2018-12-08T13:42:32.323Z,66.25
2018-12-08T13:43:32.413Z,65.75
2018-12-08T13:44:32.439Z,65.95
2018-12-08T13:45:32.475Z,66.36
2018-12-08T13:46:32.531Z,66.72
2018-12-08T13:47:32.584Z,65.66
2018-12-08T13:48:32.578Z,65.45
2018-12-08T13:49:32.645Z,65.12
2018-12-08T13:50:32.568Z,65.36
2018-12-08T13:51:32.627Z,65.05
2018-12-08T13:52:32.614Z,65.25
2018-12-08T13:53:36.703Z,65.86
2018-12-08T13:54:32.673Z,65.22
2018-12-08T13:55:32.702Z,65.25
2018-12-08T13:56:32.746Z,65.66
2018-12-08T13:57:32.791Z,65.55
2018-12-08T13:58:32.768Z,65.42
2018-12-08T13:59:32.851Z,65.45
2018-12-08T14:00:32.871Z,65.66
2018-12-08T14:01:32.874Z,65.45
2018-12-08T14:02:32.916Z,65.55
2018-12-08T14:03:32.930Z,64.75
2018-12-08T14:04:32.979Z,64.75
2018-12-08T14:05:32.943Z,65.05
2018-12-08T14:06:33.005Z,64.22
2018-12-08T14:07:32.949Z,61.35
2018-12-08T14:08:32.995Z,54.85
2018-12-08T14:09:32.997Z,56.55
2018-12-08T14:10:33.035Z,60.45
2018-12-08T14:11:33.319Z,60.45
2018-12-08T14:12:33.045Z,58.85
2018-12-08T14:13:33.108Z,59.65
2018-12-08T14:14:33.103Z,60.35
2018-12-08T14:15:33.132Z,59.65
2018-12-08T14:16:33.250Z,60.15
2018-12-08T14:17:33.231Z,59.98
2018-12-08T14:18:33.258Z,60.15
2018-12-08T14:19:33.246Z,60.18
2018-12-08T14:20:33.315Z,60.48
2018-12-08T14:21:33.375Z,60.28
2018-12-08T14:22:33.323Z,60.85
2018-12-08T14:23:33.336Z,61.18
2018-12-08T14:24:33.343Z,60.85
2018-12-08T14:25:33.332Z,61.05
2018-12-08T14:26:33.433Z,61.38
2018-12-08T14:27:33.395Z,61.35
2018-12-08T14:28:34.239Z,60.98
2018-12-08T14:29:33.439Z,61.05
2018-12-08T14:30:33.428Z,61.35
2018-12-08T14:31:33.415Z,61.25
2018-12-08T14:32:33.503Z,61.05
2018-12-08T14:33:33.493Z,61.75
2018-12-08T14:34:33.512Z,61.85
2018-12-08T14:35:33.543Z,61.55
2018-12-08T14:36:33.515Z,61.65
2018-12-08T14:37:33.554Z,61.55
2018-12-08T14:38:33.592Z,61.35
2018-12-08T14:39:33.545Z,61.05
2018-12-08T14:40:33.756Z,61.15
2018-12-08T14:41:33.578Z,64.15
2018-12-08T14:42:33.581Z,61.35
2018-12-08T14:43:33.541Z,59.65
2018-12-08T14:44:33.571Z,57.35
2018-12-08T14:51:03.424Z,46.75
2018-12-08T14:52:03.483Z,50.00
2018-12-08T14:53:03.492Z,52.96
2018-12-08T14:54:03.578Z,57.54
2018-12-08T14:55:03.697Z,58.87
2018-12-08T14:56:03.793Z,61.10
2018-12-08T14:57:03.848Z,64.67
2018-12-08T14:58:04.003Z,67.22
2018-12-08T14:59:04.040Z,68.92
2018-12-08T15:00:04.120Z,69.98
2018-12-08T15:01:04.165Z,71.28
2018-12-08T15:02:04.207Z,72.65
2018-12-08T15:03:04.339Z,74.33
2018-12-08T15:04:04.420Z,74.77
2018-12-08T15:05:04.456Z,75.90
2018-12-08T15:06:04.485Z,76.66
2018-12-08T15:07:04.572Z,76.76
2018-12-08T15:08:04.673Z,76.70
2018-12-08T15:09:04.764Z,77.72
2018-12-08T15:10:04.822Z,78.03
2018-12-08T15:11:04.956Z,77.97
2018-12-08T15:12:04.982Z,78.28
2018-12-08T15:13:05.105Z,78.69
2018-12-08T15:14:05.447Z,79.24
2018-12-08T15:15:05.299Z,79.30
2018-12-08T15:16:05.360Z,79.03
2018-12-08T15:17:05.413Z,79.24
2018-12-08T15:18:05.449Z,79.24
2018-12-08T15:19:05.513Z,79.75
2018-12-08T15:20:05.639Z,79.96
2018-12-08T15:21:05.761Z,80.30
2018-12-08T15:22:05.845Z,79.48
2018-12-08T15:23:05.884Z,79.38
2018-12-08T15:24:05.967Z,79.75
2018-12-08T15:25:06.057Z,79.96
2018-12-08T15:26:06.099Z,80.10
2018-12-08T15:27:06.186Z,80.10
2018-12-08T15:28:06.251Z,80.00
2018-12-08T15:29:06.327Z,80.10
2018-12-08T15:30:06.419Z,80.10
2018-12-08T15:31:06.538Z,80.00
2018-12-08T15:32:06.658Z,80.82
2018-12-08T15:33:06.724Z,80.93
2018-12-08T15:34:06.769Z,81.03
2018-12-08T15:35:06.964Z,80.93
2018-12-08T15:36:06.431Z,80.93
2018-12-08T15:37:06.511Z,81.75
2018-12-08T15:38:06.549Z,82.47
2018-12-08T15:39:06.586Z,82.57
2018-12-08T15:40:06.674Z,82.57
2018-12-08T15:41:06.673Z,82.06
2018-12-08T15:42:06.797Z,81.75
2018-12-08T15:43:06.981Z,82.06
2018-12-08T15:44:06.945Z,81.75
2018-12-08T15:45:07.023Z,82.47
2018-12-08T15:46:07.080Z,81.85
2018-12-08T15:47:07.179Z,81.96
2018-12-08T15:48:07.195Z,82.57
2018-12-08T15:49:07.254Z,82.40
2018-12-08T15:50:07.350Z,81.79
2018-12-08T15:51:07.401Z,83.13
2018-12-08T15:52:07.427Z,83.13
2018-12-08T15:53:07.479Z,82.92
2018-12-08T15:54:07.537Z,83.09
2018-12-08T15:55:07.593Z,82.51
2018-12-08T15:56:08.082Z,81.65
2018-12-08T15:57:07.720Z,82.20
2018-12-08T15:58:07.748Z,82.40
2018-12-08T15:59:07.860Z,82.40
2018-12-08T16:00:07.864Z,81.99
2018-12-08T16:01:07.914Z,82.16
2018-12-08T16:02:07.985Z,80.82
2018-12-08T16:03:08.037Z,81.34
2018-12-08T16:04:08.085Z,81.85
2018-12-08T16:05:08.179Z,81.44
2018-12-08T16:06:08.196Z,80.82
2018-12-08T16:07:08.297Z,80.96
2018-12-08T16:08:08.400Z,80.72
2018-12-08T16:09:08.383Z,80.72
2018-12-08T16:10:08.433Z,80.62
2018-12-08T16:11:08.478Z,80.82
2018-12-08T16:12:08.549Z,80.30
2018-12-08T16:13:10.577Z,80.00
2018-12-08T16:14:08.669Z,80.20
2018-12-08T16:15:08.740Z,80.20
2018-12-08T16:16:08.893Z,80.10
2018-12-08T16:17:08.873Z,79.79
2018-12-08T16:18:08.903Z,79.58
2018-12-08T16:19:08.960Z,80.00
2018-12-08T16:20:09.027Z,79.69
2018-12-08T16:21:09.091Z,79.03
2018-12-08T16:22:09.157Z,79.90
2018-12-08T16:23:09.219Z,79.38
2018-12-08T16:24:09.301Z,79.69
2018-12-08T16:25:09.342Z,79.17
2018-12-08T16:26:09.361Z,79.24
2018-12-08T16:27:09.443Z,79.38
2018-12-08T16:28:09.511Z,79.07
2018-12-08T16:29:09.530Z,78.24
2018-12-08T16:30:09.607Z,78.66
2018-12-08T16:31:09.652Z,78.41
2018-12-08T16:32:09.802Z,79.07
2018-12-08T16:33:09.774Z,78.86
2018-12-08T16:34:09.820Z,77.59
2018-12-08T16:35:10.955Z,77.38
2018-12-08T16:36:09.958Z,77.69
2018-12-08T16:37:10.036Z,78.34
2018-12-08T16:38:10.076Z,77.38
2018-12-08T16:39:10.141Z,77.80
2018-12-08T16:40:10.220Z,77.69
2018-12-08T16:41:10.331Z,77.48
2018-12-08T16:42:10.293Z,77.69
2018-12-08T16:43:10.356Z,77.38
2018-12-08T16:44:10.422Z,77.08
2018-12-08T16:45:10.496Z,77.90
2018-12-08T16:46:10.538Z,77.38
2018-12-08T16:47:10.627Z,77.59
2018-12-08T16:48:10.678Z,78.00
2018-12-08T16:49:10.810Z,77.38
2018-12-08T16:50:10.777Z,77.69
2018-12-08T16:51:10.813Z,77.28
2018-12-08T16:52:10.903Z,77.80
2018-12-08T16:53:10.967Z,77.59
2018-12-08T16:54:11.011Z,77.59
2018-12-08T16:55:11.096Z,77.08
2018-12-08T16:56:11.138Z,77.38
2018-12-08T16:57:11.261Z,77.28
2018-12-08T16:58:11.232Z,77.28
2018-12-08T16:59:11.297Z,77.59
2018-12-08T17:00:11.352Z,77.28
2018-12-08T17:01:11.393Z,77.38
2018-12-08T17:02:11.460Z,77.28
2018-12-08T17:03:11.537Z,77.48
2018-12-08T17:04:11.583Z,76.56
2018-12-08T17:05:11.713Z,77.28
2018-12-08T17:06:11.680Z,77.08
2018-12-08T17:07:11.779Z,76.87
2018-12-08T17:08:11.829Z,76.87
2018-12-08T17:09:11.864Z,76.83
2018-12-08T17:10:12.171Z,77.08
2018-12-08T17:11:11.982Z,77.08
2018-12-08T17:12:12.057Z,76.66
2018-12-08T17:13:12.140Z,76.46
2018-12-08T17:14:12.229Z,77.14
2018-12-08T17:15:12.225Z,76.66
2018-12-08T17:16:12.258Z,76.01
2018-12-08T17:17:12.336Z,76.25
2018-12-08T17:18:12.402Z,76.76
2018-12-08T17:19:12.459Z,76.53
2018-12-08T17:20:12.530Z,75.70
2018-12-08T17:21:12.596Z,75.90
2018-12-08T17:22:12.762Z,75.84
2018-12-08T17:23:12.687Z,75.73
2018-12-08T17:24:12.730Z,75.53
2018-12-08T17:25:12.810Z,75.70
2018-12-08T17:26:12.859Z,75.94
2018-12-08T17:27:12.934Z,75.70
2018-12-08T17:28:12.981Z,76.42
2018-12-08T17:29:13.052Z,75.63
2018-12-08T17:30:13.172Z,75.81
2018-12-08T17:31:13.145Z,75.73
2018-12-08T17:32:13.217Z,76.01
2018-12-08T17:33:13.261Z,74.77
2018-12-08T17:34:13.331Z,74.77
2018-12-08T17:35:13.402Z,74.98
2018-12-08T17:36:13.443Z,75.90
2018-12-08T17:37:13.536Z,75.90
2018-12-08T17:38:13.609Z,75.18
2018-12-08T17:39:13.593Z,75.90
2018-12-08T17:40:13.677Z,75.81
2018-12-08T17:41:13.731Z,74.77
2018-12-08T17:42:13.807Z,75.90
2018-12-08T17:43:13.853Z,76.01
2018-12-08T17:44:13.917Z,75.08
2018-12-08T17:45:13.976Z,75.81
2018-12-08T17:46:14.059Z,74.88
2018-12-08T17:47:14.113Z,74.46
2018-12-08T17:48:14.195Z,75.08
2018-12-08T17:49:14.222Z,75.08
2018-12-08T17:50:14.284Z,74.98
2018-12-08T17:51:14.346Z,75.15
2018-12-08T17:52:14.439Z,75.08
2018-12-08T17:53:14.491Z,75.05
2018-12-08T17:54:14.571Z,75.05
2018-12-08T17:55:14.719Z,74.77
2018-12-08T17:56:14.698Z,75.81
2018-12-08T17:57:14.747Z,75.18
2018-12-08T17:58:14.795Z,74.88
2018-12-08T17:59:14.839Z,75.29
2018-12-08T18:00:14.935Z,74.95
2018-12-08T18:01:14.991Z,75.25
2018-12-08T18:02:15.184Z,74.88
2018-12-08T18:03:15.183Z,74.53
2018-12-08T18:04:15.168Z,74.53
2018-12-08T18:05:15.227Z,74.74
2018-12-08T18:06:15.278Z,74.02
2018-12-08T18:07:15.354Z,74.02
2018-12-08T18:08:15.430Z,74.63
2018-12-08T18:09:15.477Z,73.91
2018-12-08T18:10:15.545Z,74.63
2018-12-08T18:11:15.649Z,74.12
2018-12-08T18:12:15.676Z,73.50
2018-12-08T18:13:15.737Z,73.71
2018-12-08T18:14:15.785Z,73.61
2018-12-08T18:15:15.877Z,74.43
2018-12-08T18:16:16.012Z,74.63
2018-12-08T18:17:15.986Z,74.74
2018-12-08T18:18:16.031Z,73.91
2018-12-08T18:19:16.155Z,74.53
2018-12-08T18:20:16.118Z,74.74
2018-12-08T18:21:18.970Z,74.33
2018-12-08T18:22:17.041Z,74.50
2018-12-08T18:23:16.298Z,74.63
2018-12-08T18:24:16.355Z,74.33
2018-12-08T18:25:16.414Z,74.43
2018-12-08T18:26:16.458Z,74.43
2018-12-08T18:27:16.582Z,74.43
2018-12-08T18:28:16.649Z,74.43
2018-12-08T18:29:16.633Z,75.15
2018-12-08T18:30:16.711Z,74.43
2018-12-08T18:31:16.738Z,75.15
2018-12-08T18:32:16.821Z,74.63
2018-12-08T18:33:16.912Z,74.95
2018-12-08T18:34:16.937Z,75.15
2018-12-08T18:35:16.978Z,75.15
2018-12-08T18:36:17.147Z,74.84
2018-12-08T18:37:17.103Z,74.74
2018-12-08T18:38:17.196Z,74.63
2018-12-08T18:39:17.212Z,74.95
2018-12-08T18:40:17.249Z,75.87
2018-12-08T18:41:17.308Z,75.15
2018-12-08T18:42:17.405Z,75.15
2018-12-08T18:43:17.444Z,75.87
2018-12-08T18:44:17.589Z,75.56
2018-12-08T18:45:17.542Z,75.87
2018-12-08T18:46:17.620Z,75.90
2018-12-08T18:47:17.679Z,75.70
2018-12-08T18:48:17.781Z,75.90
2018-12-08T18:49:18.915Z,75.87
2018-12-08T18:50:18.394Z,75.67
2018-12-08T18:51:17.871Z,76.07
2018-12-08T18:52:18.027Z,75.90
2018-12-08T18:53:17.996Z,76.01
2018-12-08T18:54:18.061Z,75.87
2018-12-08T18:55:18.092Z,75.70
2018-12-08T18:56:18.149Z,75.67
2018-12-08T18:57:18.222Z,75.81
2018-12-08T18:58:18.263Z,75.87
2018-12-08T18:59:18.341Z,75.90
2018-12-08T19:00:18.448Z,75.67
2018-12-08T19:01:18.445Z,75.90
2018-12-08T19:02:18.509Z,75.77
2018-12-08T19:03:18.552Z,75.77
2018-12-08T19:04:18.661Z,76.11
2018-12-08T19:05:18.665Z,75.87
2018-12-08T19:06:18.723Z,75.81
2018-12-08T19:07:18.794Z,75.90
2018-12-08T19:08:18.844Z,75.25
2018-12-08T19:09:19.009Z,75.70
2018-12-08T19:10:18.940Z,75.97
2018-12-08T19:11:19.002Z,76.01
2018-12-08T19:12:19.089Z,75.87
2018-12-08T19:13:19.109Z,76.07
2018-12-08T19:14:19.200Z,75.97
2018-12-08T19:15:19.230Z,76.01
2018-12-08T19:16:19.274Z,75.87
2018-12-08T19:17:19.482Z,76.11
2018-12-08T19:18:19.402Z,76.01
2018-12-08T19:19:19.493Z,75.90
2018-12-08T19:20:19.527Z,75.90
2018-12-08T19:21:19.565Z,76.11
2018-12-08T19:22:19.653Z,75.49
2018-12-08T19:23:19.710Z,76.11
2018-12-08T19:24:19.795Z,75.81
2018-12-08T19:25:19.895Z,75.70
2018-12-08T19:26:19.862Z,75.70
2018-12-08T19:27:19.957Z,75.60
2018-12-08T19:28:19.981Z,76.01
2018-12-08T19:29:20.057Z,75.90
2018-12-08T19:30:20.090Z,76.11
2018-12-08T19:31:20.173Z,75.70
2018-12-08T19:32:20.224Z,75.53
2018-12-08T19:33:20.303Z,76.01
2018-12-08T19:34:20.500Z,75.63
2018-12-08T19:35:20.380Z,76.04
2018-12-08T19:36:20.662Z,76.15
2018-12-08T19:37:20.521Z,76.25
2018-12-08T19:38:20.574Z,76.46
2018-12-08T19:39:20.647Z,76.56
2018-12-08T19:40:20.684Z,76.70
2018-12-08T19:41:20.743Z,76.80
2018-12-08T19:42:20.887Z,76.90
2018-12-08T19:43:20.836Z,77.11
2018-12-08T19:44:20.913Z,77.31
2018-12-08T19:45:20.960Z,77.11
2018-12-08T19:46:21.026Z,77.52
2018-12-08T19:47:21.083Z,77.73
2018-12-08T19:48:21.118Z,78.59
2018-12-08T19:49:21.202Z,77.87
2018-12-08T19:50:21.311Z,78.28
2018-12-08T19:51:21.287Z,78.38
2018-12-08T19:52:21.358Z,78.90
2018-12-08T19:53:21.403Z,78.80
2018-12-08T19:54:21.498Z,78.59
2018-12-08T19:55:21.531Z,78.83
2018-12-08T19:56:21.581Z,78.63
2018-12-08T19:57:21.651Z,78.83
2018-12-08T19:58:21.796Z,78.42
2018-12-08T19:59:21.764Z,79.25
2018-12-08T20:00:21.808Z,79.45
2018-12-08T20:01:21.853Z,79.45
2018-12-08T20:02:21.925Z,79.04
2018-12-08T20:03:21.972Z,79.04
2018-12-08T20:04:22.040Z,79.35
2018-12-08T20:05:22.117Z,78.94
2018-12-08T20:06:22.189Z,79.35
2018-12-08T20:07:22.191Z,78.94
2018-12-08T20:08:22.247Z,79.76
2018-12-08T20:09:22.332Z,79.25
2018-12-08T20:10:22.377Z,79.90
2018-12-08T20:11:22.427Z,79.97
2018-12-08T20:12:22.517Z,79.55
2018-12-08T20:13:22.554Z,79.08
2018-12-08T20:14:22.648Z,79.08
2018-12-08T20:15:22.715Z,79.14
2018-12-08T20:16:22.746Z,79.25
2018-12-08T20:17:22.817Z,79.28
2018-12-08T20:18:22.856Z,79.25
2018-12-08T20:19:22.928Z,79.25
2018-12-08T20:20:23.004Z,78.83
2018-12-08T20:21:23.150Z,78.97
2018-12-08T20:22:23.144Z,79.35
2018-12-08T20:23:23.268Z,78.83
2018-12-08T20:24:23.259Z,79.38
2018-12-08T20:25:23.289Z,79.18
2018-12-08T20:26:23.335Z,79.18
2018-12-08T20:27:23.406Z,79.18
2018-12-08T20:28:23.462Z,80.11
2018-12-08T20:29:23.524Z,79.90
2018-12-08T20:30:23.611Z,79.59
2018-12-08T20:31:23.779Z,80.42
2018-12-08T20:32:23.755Z,80.00
2018-12-08T20:33:23.784Z,80.32
2018-12-08T20:34:23.848Z,80.83
2018-12-08T20:35:23.903Z,80.73
2018-12-08T20:36:23.967Z,81.14
2018-12-08T20:37:24.026Z,81.24
2018-12-08T20:38:24.062Z,81.45
2018-12-08T20:39:24.220Z,81.66
2018-12-08T20:40:24.192Z,81.59
2018-12-08T20:41:24.246Z,81.38
2018-12-08T20:42:24.320Z,81.59
2018-12-08T20:43:24.374Z,82.10
2018-12-08T20:44:24.427Z,82.10
2018-12-08T20:45:24.478Z,81.56
2018-12-08T20:46:25.923Z,82.21
2018-12-08T20:47:24.655Z,82.21
2018-12-08T20:48:24.639Z,82.31
2018-12-08T20:49:24.947Z,82.52
2018-12-08T20:50:24.776Z,82.31
2018-12-08T20:51:24.832Z,82.52
2018-12-08T20:52:24.915Z,82.31
2018-12-08T20:53:24.951Z,83.45
2018-12-08T20:54:25.044Z,82.83
2018-12-08T20:55:25.096Z,82.52
2018-12-08T20:56:25.212Z,82.52
2018-12-08T20:57:25.200Z,82.93
2018-12-08T20:58:25.233Z,83.25
2018-12-08T20:59:25.322Z,82.83
2018-12-08T21:00:25.379Z,83.25
2018-12-08T21:01:25.438Z,83.07
2018-12-08T21:02:25.522Z,82.83
2018-12-08T21:03:25.545Z,83.04
2018-12-08T21:04:25.725Z,83.04
2018-12-08T21:05:25.663Z,83.07
2018-12-08T21:06:25.704Z,83.04
2018-12-08T21:07:25.782Z,82.97
2018-12-08T21:08:25.841Z,83.04
2018-12-08T21:09:25.924Z,82.97
2018-12-08T21:10:25.999Z,83.18
2018-12-08T21:11:26.021Z,84.00
2018-12-08T21:12:26.177Z,83.49
2018-12-08T21:13:26.134Z,83.28
2018-12-08T21:14:26.239Z,83.49
2018-12-08T21:15:26.272Z,83.90
2018-12-08T21:16:26.308Z,83.28
2018-12-08T21:17:26.388Z,83.39
2018-12-08T21:18:26.442Z,83.42
2018-12-08T21:19:26.518Z,83.73
2018-12-08T21:20:26.596Z,83.49
2018-12-08T21:21:26.598Z,83.42
2018-12-08T21:22:26.683Z,83.32
2018-12-08T21:23:27.191Z,83.11
2018-12-08T21:24:26.807Z,83.53
2018-12-08T21:25:26.899Z,83.18
2018-12-08T21:26:26.928Z,83.18
2018-12-08T21:27:27.004Z,83.28
2018-12-08T21:28:27.088Z,83.32
2018-12-08T21:29:27.202Z,83.11
2018-12-08T21:30:27.503Z,82.90
2018-12-08T21:31:27.287Z,83.32
2018-12-08T21:32:27.339Z,83.32
2018-12-08T21:33:27.420Z,82.90
2018-12-08T21:34:27.495Z,83.22
2018-12-08T21:35:27.542Z,82.66
2018-12-08T21:36:27.626Z,82.87
2018-12-08T21:37:27.857Z,82.70
2018-12-08T21:38:27.707Z,82.60
2018-12-08T21:39:27.786Z,82.50
2018-12-08T21:40:27.826Z,82.56
2018-12-08T21:41:27.948Z,82.45
2018-12-08T21:42:27.954Z,82.50
2018-12-08T21:43:28.011Z,82.50
2018-12-08T21:44:28.111Z,82.56
2018-12-08T21:45:28.250Z,81.98
2018-12-08T21:46:28.204Z,81.98
2018-12-08T21:47:28.239Z,82.70
2018-12-08T21:48:28.292Z,82.70
2018-12-08T21:49:28.372Z,82.60
2018-12-08T21:50:29.213Z,83.22
2018-12-08T21:51:28.495Z,83.11
2018-12-08T21:52:28.546Z,82.70
2018-12-08T21:53:28.642Z,82.60
2018-12-08T21:54:28.634Z,82.60
2018-12-08T21:55:28.691Z,82.60
2018-12-08T21:56:28.793Z,82.60
2018-12-08T21:57:28.820Z,82.60
2018-12-08T21:58:28.879Z,81.87
2018-12-08T21:59:28.968Z,81.98
2018-12-08T22:00:28.988Z,82.18
2018-12-08T22:01:29.352Z,82.29
2018-12-08T22:02:29.078Z,82.39
2018-12-08T22:03:29.175Z,82.70
2018-12-08T22:04:29.235Z,82.50
2018-12-08T22:05:29.275Z,82.39
2018-12-08T22:06:29.351Z,82.50
2018-12-08T22:07:29.383Z,82.60
2018-12-08T22:08:29.442Z,82.29
2018-12-08T22:09:29.535Z,82.01
2018-12-08T22:10:29.671Z,82.18
2018-12-08T22:11:29.663Z,81.98
2018-12-08T22:12:29.668Z,83.42
2018-12-08T22:13:29.744Z,82.29
2018-12-08T22:14:30.644Z,82.08
2018-12-08T22:15:29.839Z,82.18
2018-12-08T22:16:29.929Z,82.64
2018-12-08T22:17:29.966Z,82.39
2018-12-08T22:18:30.141Z,82.60
2018-12-08T22:19:30.112Z,82.60
2018-12-08T22:20:30.147Z,82.08
2018-12-08T22:21:30.236Z,81.87
2018-12-08T22:22:30.287Z,82.60
2018-12-08T22:23:30.333Z,82.60
2018-12-08T22:24:30.409Z,82.70
2018-12-08T22:25:30.449Z,82.70
2018-12-08T22:26:30.605Z,82.80
2018-12-08T22:27:30.565Z,83.11
2018-12-08T22:28:30.627Z,83.11
2018-12-08T22:29:30.709Z,82.60
2018-12-08T22:30:30.769Z,82.50
2018-12-08T22:31:30.846Z,83.32
2018-12-08T22:32:30.874Z,83.73
2018-12-08T22:33:30.954Z,82.50
2018-12-08T22:34:31.075Z,82.70
2018-12-08T22:35:31.028Z,82.74
2018-12-08T22:36:31.127Z,82.60
2018-12-08T22:37:31.161Z,82.80
2018-12-08T22:38:31.203Z,82.60
2018-12-08T22:39:31.288Z,82.29
2018-12-08T22:40:31.331Z,82.50
2018-12-08T22:41:31.418Z,81.98
2018-12-08T22:42:31.471Z,82.50
2018-12-08T22:43:31.557Z,82.80
2018-12-08T22:44:31.576Z,83.53
2018-12-08T22:45:31.636Z,83.42
2018-12-08T22:46:31.734Z,83.11
2018-12-08T22:47:31.744Z,83.01
2018-12-08T22:48:33.792Z,83.36
2018-12-08T22:49:31.888Z,83.53
2018-12-08T22:50:31.937Z,82.70
2018-12-08T22:51:32.113Z,82.60
2018-12-08T22:52:32.038Z,82.60
2018-12-08T22:53:32.113Z,82.70
2018-12-08T22:54:32.165Z,81.98
2018-12-08T22:55:32.197Z,82.39
2018-12-08T22:56:32.302Z,82.87
2018-12-08T22:57:32.316Z,82.25
2018-12-08T22:58:32.381Z,82.35
2018-12-08T22:59:32.538Z,81.59
2018-12-08T23:00:32.474Z,81.94
2018-12-08T23:01:32.588Z,81.84
2018-12-08T23:02:32.609Z,81.80
2018-12-08T23:03:32.666Z,82.10
2018-12-08T23:04:32.766Z,81.70
2018-12-08T23:05:32.781Z,81.49
2018-12-08T23:06:32.872Z,82.10
2018-12-08T23:07:32.940Z,82.21
2018-12-08T23:08:32.955Z,82.00
2018-12-08T23:09:33.021Z,81.90
2018-12-08T23:10:33.062Z,82.42
2018-12-08T23:11:33.160Z,82.31
2018-12-08T23:12:33.175Z,82.31
2018-12-08T23:13:33.229Z,81.90
2018-12-08T23:14:33.524Z,81.80
2018-12-08T23:15:33.467Z,82.89
2018-12-08T23:16:33.481Z,82.93
2018-12-08T23:17:33.532Z,84.07
2018-12-08T23:18:33.586Z,84.07
2018-12-08T23:19:33.682Z,84.07
2018-12-08T23:20:33.719Z,83.93
2018-12-08T23:21:33.807Z,84.79
2018-12-08T23:22:33.859Z,84.23
2018-12-08T23:23:33.926Z,84.38
2018-12-08T23:24:34.118Z,84.86
2018-12-08T23:25:34.006Z,84.17
2018-12-08T23:26:34.094Z,84.75
2018-12-08T23:27:34.120Z,84.86
2018-12-08T23:28:34.178Z,85.00
2018-12-08T23:29:34.258Z,85.00
2018-12-08T23:30:34.311Z,85.89
2018-12-08T23:31:34.374Z,86.03
2018-12-08T23:32:34.522Z,86.03
2018-12-08T23:33:34.458Z,86.24
2018-12-08T23:34:34.537Z,86.51
2018-12-08T23:35:34.588Z,86.65
2018-12-08T23:36:34.667Z,87.02
2018-12-08T23:37:34.707Z,87.17
2018-12-08T23:38:34.786Z,87.68
2018-12-08T23:39:38.968Z,88.41
2018-12-08T23:40:35.914Z,88.61
2018-12-08T23:41:34.938Z,88.51
2018-12-08T23:42:34.999Z,88.82
2018-12-08T23:43:35.034Z,88.82
2018-12-08T23:44:35.107Z,89.03
2018-12-08T23:45:35.143Z,88.61
2018-12-08T23:46:35.248Z,88.41
2018-12-08T23:47:35.277Z,88.41
2018-12-08T23:48:35.434Z,88.92
2018-12-08T23:49:35.410Z,89.54
2018-12-08T23:50:35.438Z,89.34
2018-12-08T23:51:35.528Z,88.92
2018-12-08T23:52:35.559Z,89.13
2018-12-08T23:53:35.639Z,89.65
2018-12-08T23:54:35.708Z,89.23
2018-12-08T23:55:35.753Z,89.34
2018-12-08T23:56:35.871Z,89.44
2018-12-08T23:57:35.954Z,89.86
2018-12-08T23:58:35.922Z,89.95
2018-12-08T23:59:35.997Z,90.16
